Time;durP1;ratioP1;P1;durP2;ratioP2;P2;SDS_P1;SDS_P2;PMS_P1;PMS_P2;Temp;Humidity;BMP_temperature;BMP_pressure;BME280_temperature;BME280_humidity;BME280_pressure;Samples;Min_cycle;Max_cycle;Signal;HPM_P1;HPM_P2
2022/03/22 00:00:30;;;;;;;12.75;10.75;;;;;;;3.46;62.32;103287.69;5029829;28;20257;-46
2022/03/22 00:02:57;;;;;;;11.90;10.43;;;;;;;3.34;63.25;103282.00;5029683;28;20210;-47
2022/03/22 00:05:23;;;;;;;16.45;11.20;;;;;;;3.39;63.70;103279.50;5029989;28;20564;-47
2022/03/22 00:07:49;;;;;;;13.77;11.15;;;;;;;3.32;64.60;103291.66;5030404;28;20168;-48
2022/03/22 00:10:15;;;;;;;15.77;11.38;;;;;;;3.11;65.14;103285.69;5030012;28;20307;-51
2022/03/22 00:12:42;;;;;;;14.80;11.43;;;;;;;3.01;65.36;103288.03;5027955;28;20192;-47
2022/03/22 00:15:09;;;;;;;14.48;12.02;;;;;;;3.00;65.14;103288.00;5030333;28;20560;-48
2022/03/22 00:17:36;;;;;;;16.73;12.18;;;;;;;2.74;65.84;103293.31;5030096;28;20168;-49
2022/03/22 00:20:02;;;;;;;13.95;11.82;;;;;;;2.70;66.57;103290.53;5029511;28;20544;-51
2022/03/22 00:22:28;;;;;;;14.25;11.90;;;;;;;2.70;67.15;103287.88;5029324;28;20524;-49
2022/03/22 00:24:54;;;;;;;12.63;11.18;;;;;;;2.76;67.73;103304.88;5027939;28;20207;-46
2022/03/22 00:27:19;;;;;;;14.73;12.07;;;;;;;2.66;67.83;103290.41;5029766;28;20180;-47
2022/03/22 00:29:44;;;;;;;13.90;11.60;;;;;;;2.55;68.25;103293.53;5030099;28;20631;-47
2022/03/22 00:32:10;;;;;;;13.55;11.45;;;;;;;2.36;68.65;103287.63;5029535;28;20188;-47
2022/03/22 00:34:44;;;;;;;14.02;11.45;;;;;;;2.25;69.23;103291.59;5029431;28;20195;-51
2022/03/22 00:37:15;;;;;;;13.48;11.50;;;;;;;2.27;69.79;103289.91;5029671;28;20160;-46
2022/03/22 00:39:42;;;;;;;14.85;11.52;;;;;;;2.40;69.79;103291.25;5029635;28;20245;-44
2022/03/22 00:42:07;;;;;;;13.48;10.85;;;;;;;2.50;69.70;103284.53;5029754;28;20278;-44
2022/03/22 00:44:35;;;;;;;13.80;11.55;;;;;;;2.46;69.58;103287.06;5029089;28;20200;-46
2022/03/22 00:47:00;;;;;;;15.00;11.43;;;;;;;2.53;69.92;103282.88;5028176;28;20185;-46
2022/03/22 00:49:26;;;;;;;14.00;11.80;;;;;;;2.37;69.52;103289.41;5029630;28;20179;-46
2022/03/22 00:51:51;;;;;;;14.65;10.68;;;;;;;2.33;69.62;103282.19;5029404;28;20195;-45
2022/03/22 00:54:16;;;;;;;15.15;12.02;;;;;;;2.41;68.93;103277.19;5031083;28;20204;-46
2022/03/22 00:56:42;;;;;;;17.83;11.77;;;;;;;2.20;69.13;103291.44;5032908;28;20172;-45
2022/03/22 01:01:51;;;;;;;16.00;11.60;;;;;;;1.89;70.46;103278.84;5032822;28;20255;-45
2022/03/22 01:04:16;;;;;;;15.05;11.77;;;;;;;1.75;71.25;103274.78;5040663;28;20278;-45
2022/03/22 01:06:42;;;;;;;13.77;11.75;;;;;;;1.81;71.27;103278.53;5052485;28;20175;-46
2022/03/22 01:09:07;;;;;;;13.70;11.77;;;;;;;1.86;71.00;103291.97;5052722;28;20171;-46
2022/03/22 01:11:33;;;;;;;14.75;12.35;;;;;;;1.85;70.89;103277.81;5052773;28;20218;-46
2022/03/22 01:13:58;;;;;;;16.13;12.75;;;;;;;1.78;71.60;103280.19;5051274;28;20229;-46
2022/03/22 01:16:23;;;;;;;14.93;12.43;;;;;;;1.75;71.91;103278.34;5052507;28;20167;-46
2022/03/22 01:18:49;;;;;;;16.33;13.02;;;;;;;1.61;72.22;103275.16;5052787;28;20217;-45
2022/03/22 01:21:14;;;;;;;15.63;12.50;;;;;;;1.52;71.83;103285.38;5052556;28;20229;-47
2022/03/22 01:23:40;;;;;;;15.25;11.70;;;;;;;1.40;72.76;103282.25;5050901;28;20290;-45
2022/03/22 01:26:06;;;;;;;17.02;12.02;;;;;;;1.50;73.10;103279.13;5052834;28;20198;-45
2022/03/22 01:28:31;;;;;;;13.82;11.63;;;;;;;1.47;73.36;103284.31;5052405;28;20225;-46
2022/03/22 01:30:57;;;;;;;15.68;12.57;;;;;;;1.37;72.94;103277.75;5052820;28;20191;-45
2022/03/22 01:33:23;;;;;;;16.98;13.15;;;;;;;1.41;72.83;103284.06;5052046;28;20199;-46
2022/03/22 01:35:48;;;;;;;17.17;12.40;;;;;;;1.63;73.23;103270.84;5052291;28;20202;-46
2022/03/22 01:38:13;;;;;;;15.15;12.60;;;;;;;1.62;72.69;103276.97;5052806;28;20246;-48
2022/03/22 01:40:39;;;;;;;15.10;12.13;;;;;;;1.63;72.57;103276.13;5052227;28;20178;-46
2022/03/22 01:43:06;;;;;;;14.55;11.57;;;;;;;1.67;72.80;103276.25;5052104;28;20183;-45
2022/03/22 01:45:31;;;;;;;15.77;12.25;;;;;;;1.62;72.60;103279.63;5051983;28;20279;-45
2022/03/22 01:48:03;;;;;;;14.10;11.75;;;;;;;1.51;72.66;103273.03;5052137;28;20163;-45
2022/03/22 01:50:29;;;;;;;14.82;11.85;;;;;;;1.51;72.68;103269.47;5052103;28;20168;-45
2022/03/22 01:52:56;;;;;;;15.35;12.13;;;;;;;1.36;73.56;103269.78;5051908;28;20630;-45
2022/03/22 01:55:23;;;;;;;14.68;11.68;;;;;;;1.16;73.71;103267.25;5050751;28;20663;-45
2022/03/22 01:57:49;;;;;;;17.98;12.82;;;;;;;1.14;74.43;103273.31;5051977;28;20179;-46
2022/03/22 02:00:17;;;;;;;17.55;12.80;;;;;;;1.06;74.00;103261.53;5052040;28;20198;-48
2022/03/22 02:08:16;;;;;;;15.73;12.88;;;;;;;1.24;74.47;103259.63;5050601;28;20218;-45
2022/03/22 02:10:42;;;;;;;15.05;11.70;;;;;;;1.14;74.09;103257.47;5052246;28;20176;-46
2022/03/22 02:13:08;;;;;;;20.50;13.05;;;;;;;1.20;74.34;103261.25;5049977;28;20194;-48
2022/03/22 02:15:33;;;;;;;15.23;13.00;;;;;;;1.17;74.13;103250.56;5052088;28;20376;-48
2022/03/22 02:17:59;;;;;;;14.02;12.27;;;;;;;1.17;74.37;103250.56;5051498;28;20171;-45
2022/03/22 02:20:25;;;;;;;15.50;12.80;;;;;;;1.22;74.23;103254.31;5048308;28;20266;-45
2022/03/22 02:23:04;;;;;;;16.95;13.57;;;;;;;1.13;73.80;103259.19;5050839;28;20175;-46
2022/03/22 02:25:29;;;;;;;17.00;13.20;;;;;;;1.02;74.36;103253.47;5051597;28;20198;-45
2022/03/22 02:27:55;;;;;;;17.35;12.75;;;;;;;1.11;74.54;103252.94;5050118;28;20167;-46
2022/03/22 02:30:22;;;;;;;15.73;12.90;;;;;;;1.08;74.65;103254.59;5041863;28;20183;-45
2022/03/22 02:32:52;;;;;;;19.63;14.18;;;;;;;1.05;74.13;103257.09;5050026;28;20192;-45
2022/03/22 02:35:18;;;;;;;15.95;12.30;;;;;;;1.05;74.18;103247.47;5051171;28;20198;-46
2022/03/22 02:37:46;;;;;;;16.23;13.55;;;;;;;0.83;74.60;103248.28;5051371;28;20167;-45
2022/03/22 02:40:13;;;;;;;17.58;13.93;;;;;;;0.70;75.53;103249.56;5050725;28;20592;-47
2022/03/22 02:42:42;;;;;;;15.55;12.93;;;;;;;0.71;75.48;103235.50;5050598;28;20171;-44
2022/03/22 02:45:09;;;;;;;16.17;12.95;;;;;;;0.57;76.65;103252.53;5050793;28;20682;-46
2022/03/22 02:47:34;;;;;;;17.45;13.23;;;;;;;0.50;76.53;103240.78;5051030;28;20282;-46
2022/03/22 02:50:00;;;;;;;16.48;13.32;;;;;;;0.53;76.41;103247.94;5050515;28;20194;-45
2022/03/22 02:52:25;;;;;;;18.33;13.35;;;;;;;0.71;76.64;103240.78;5050477;28;20698;-44
2022/03/22 02:54:51;;;;;;;17.13;12.70;;;;;;;0.84;76.20;103239.56;5050669;28;20187;-45
2022/03/22 02:57:17;;;;;;;16.15;12.95;;;;;;;0.82;76.50;103236.84;5051092;28;20672;-45
2022/03/22 02:59:42;;;;;;;17.65;13.27;;;;;;;0.85;76.27;103243.97;5050640;28;20219;-44
2022/03/22 03:02:07;;;;;;;16.73;13.05;;;;;;;0.85;76.60;103238.72;5050660;28;20181;-44
2022/03/22 03:04:33;;;;;;;14.80;12.25;;;;;;;0.87;76.45;103251.97;5039827;28;20195;-47
2022/03/22 03:06:58;;;;;;;16.58;12.70;;;;;;;0.85;76.05;103243.09;5012821;28;20172;-45
2022/03/22 03:09:24;;;;;;;16.65;13.27;;;;;;;0.74;76.13;103254.09;5029069;28;20196;-45
2022/03/22 03:11:49;;;;;;;16.52;12.88;;;;;;;0.71;75.62;103248.72;5030574;28;20195;-46
2022/03/22 03:16:59;;;;;;;18.88;13.38;;;;;;;0.71;75.59;103247.81;5029553;28;20251;-47
2022/03/22 03:19:25;;;;;;;16.40;13.70;;;;;;;0.64;76.50;103248.41;5028622;28;20195;-45
2022/03/22 03:21:50;;;;;;;17.77;12.43;;;;;;;0.69;76.72;103245.09;5029991;28;20156;-46
2022/03/22 03:24:16;;;;;;;16.60;13.52;;;;;;;0.66;76.46;103247.63;5029513;28;20299;-46
2022/03/22 03:26:42;;;;;;;16.80;13.77;;;;;;;0.71;76.72;103256.63;5029758;28;20248;-46
2022/03/22 03:29:09;;;;;;;15.75;12.75;;;;;;;0.77;75.94;103243.69;5028141;28;20182;-48
2022/03/22 03:31:34;;;;;;;15.40;12.43;;;;;;;0.86;76.37;103253.72;5029463;28;20595;-46
2022/03/22 03:34:00;;;;;;;16.85;12.80;;;;;;;0.79;76.09;103246.41;5028060;28;20591;-45
2022/03/22 03:36:25;;;;;;;17.88;13.88;;;;;;;0.70;76.18;103254.84;5028455;28;20333;-45
2022/03/22 03:38:51;;;;;;;15.63;12.70;;;;;;;0.48;76.92;103250.41;5029881;28;20544;-46
2022/03/22 03:47:03;;;;;;;15.63;12.10;;;;;;;0.58;77.58;103254.31;5029404;28;20788;-47
2022/03/22 03:47:04;;;;;;;15.73;12.57;;;;;;;0.59;77.11;103250.81;5029700;28;20600;-47
2022/03/22 03:49:34;;;;;;;17.88;12.55;;;;;;;0.68;76.40;103255.59;5029990;28;20178;-47
2022/03/22 03:52:01;;;;;;;15.52;13.13;;;;;;;0.67;76.44;103257.31;5028800;28;20212;-45
2022/03/22 03:54:27;;;;;;;15.43;12.65;;;;;;;0.72;76.23;103260.16;5029196;28;20220;-45
2022/03/22 03:56:53;;;;;;;19.38;13.57;;;;;;;0.40;76.85;103257.06;5029769;28;20267;-45
2022/03/22 03:59:18;;;;;;;18.50;12.70;;;;;;;0.29;77.19;103259.25;5029289;28;20290;-45
2022/03/22 04:01:44;;;;;;;16.13;13.07;;;;;;;0.43;77.67;103254.56;5029705;28;20206;-45
2022/03/22 04:04:10;;;;;;;16.20;12.90;;;;;;;0.50;76.48;103261.00;5029084;28;20211;-44
2022/03/22 04:06:35;;;;;;;16.38;13.13;;;;;;;0.39;76.47;103268.44;5029378;28;20265;-47
2022/03/22 04:09:01;;;;;;;20.52;14.18;;;;;;;0.11;78.15;103269.91;5029215;28;20314;-48
2022/03/22 04:11:26;;;;;;;18.00;13.00;;;;;;;-0.07;78.50;103271.69;5029165;28;20587;-48
2022/03/22 04:13:52;;;;;;;19.75;13.93;;;;;;;0.07;79.09;103272.34;5029268;28;20215;-46
2022/03/22 04:16:17;;;;;;;17.20;13.32;;;;;;;0.12;79.55;103265.53;5028427;28;20172;-46
2022/03/22 04:18:43;;;;;;;22.98;13.93;;;;;;;0.03;78.67;103275.66;5028501;28;20257;-46
2022/03/22 04:21:08;;;;;;;18.63;13.45;;;;;;;-0.10;78.69;103256.66;5038606;28;20681;-46
2022/03/22 04:23:34;;;;;;;18.00;13.13;;;;;;;0.02;79.44;103268.56;5046360;28;20776;-46
2022/03/22 04:26:00;;;;;;;20.33;13.48;;;;;;;0.14;79.14;103279.66;5049926;28;20176;-46
2022/03/22 04:33:53;;;;;;;17.73;12.52;;;;;;;0.09;79.31;103274.19;5052574;28;20254;-47
2022/03/22 04:36:19;;;;;;;18.23;13.88;;;;;;;-0.01;78.88;103275.50;5052692;28;20266;-46
2022/03/22 04:38:44;;;;;;;17.20;13.07;;;;;;;-0.03;79.31;103281.53;5053186;28;20242;-46
2022/03/22 04:41:10;;;;;;;19.33;14.20;;;;;;;0.04;79.71;103280.09;5052917;28;20177;-48
2022/03/22 04:43:35;;;;;;;16.17;12.73;;;;;;;0.11;78.89;103284.78;5052879;28;20312;-47
2022/03/22 04:46:03;;;;;;;16.95;13.40;;;;;;;0.07;78.97;103278.50;5053298;28;20217;-47
2022/03/22 04:48:29;;;;;;;15.98;12.93;;;;;;;0.01;78.83;103279.97;5052935;28;20164;-46
2022/03/22 04:56:43;;;;;;;17.75;13.13;;;;;;;0.09;79.11;103287.38;5052499;28;20518;-46
2022/03/22 04:59:09;;;;;;;17.95;14.20;;;;;;;-0.40;80.39;103284.25;5052336;28;20230;-46
2022/03/22 05:01:35;;;;;;;16.65;13.25;;;;;;;-0.35;80.74;103274.81;5052524;28;20222;-46
2022/03/22 05:04:01;;;;;;;17.20;13.68;;;;;;;-0.37;80.12;103285.28;5046428;28;20626;-47
2022/03/22 05:06:26;;;;;;;17.63;14.20;;;;;;;-0.44;80.49;103283.19;5032662;28;20176;-45
2022/03/22 05:08:55;;;;;;;17.58;13.98;;;;;;;-0.25;80.86;103283.22;5032288;28;20263;-46
2022/03/22 05:11:20;;;;;;;17.27;13.00;;;;;;;-0.14;80.27;103278.44;5031850;28;20176;-47
2022/03/22 05:13:46;;;;;;;17.38;13.45;;;;;;;-0.08;80.63;103293.63;5031575;28;20301;-46
2022/03/22 05:16:12;;;;;;;15.13;12.85;;;;;;;-0.02;80.07;103289.53;5032047;28;20163;-45
2022/03/22 05:18:37;;;;;;;18.13;13.63;;;;;;;0.03;80.47;103296.75;5031600;28;20164;-48
2022/03/22 05:21:04;;;;;;;22.27;14.63;;;;;;;-0.03;79.61;103294.72;5032031;28;20168;-48
2022/03/22 05:23:30;;;;;;;16.52;12.90;;;;;;;-0.04;79.70;103292.94;5031244;28;20555;-46
2022/03/22 05:25:56;;;;;;;18.60;13.73;;;;;;;-0.09;80.04;103289.16;5032136;28;20691;-45
2022/03/22 05:28:22;;;;;;;19.05;14.20;;;;;;;-0.30;80.31;103297.00;5032027;28;20229;-46
2022/03/22 05:30:48;;;;;;;17.52;14.00;;;;;;;-0.40;81.16;103300.94;5030226;28;20206;-46
2022/03/22 05:33:13;;;;;;;16.60;13.05;;;;;;;-0.30;81.28;103294.38;5031081;28;20215;-45
2022/03/22 05:35:39;;;;;;;18.30;13.85;;;;;;;-0.35;81.99;103291.53;5029962;28;20467;-46
2022/03/22 05:38:05;;;;;;;18.60;14.35;;;;;;;-0.40;81.62;103300.94;5032036;28;20179;-46
2022/03/22 05:40:31;;;;;;;16.98;12.88;;;;;;;-0.31;82.22;103301.34;5030590;28;20267;-45
2022/03/22 05:42:56;;;;;;;19.05;13.93;;;;;;;-0.17;81.67;103293.22;5030509;28;20172;-45
2022/03/22 05:45:23;;;;;;;17.88;14.50;;;;;;;-0.07;82.07;103301.56;5031283;28;20195;-45
2022/03/22 05:47:50;;;;;;;17.33;14.48;;;;;;;-0.07;81.67;103306.84;5031787;28;20164;-46
2022/03/22 05:50:15;;;;;;;17.73;14.05;;;;;;;0.05;81.47;103295.09;5031581;28;20177;-46
2022/03/22 05:52:45;;;;;;;18.45;13.50;;;;;;;0.08;81.03;103304.00;5031197;28;20196;-45
2022/03/22 05:55:11;;;;;;;17.15;14.30;;;;;;;0.15;80.97;103313.09;5030402;28;20195;-45
2022/03/22 05:57:37;;;;;;;18.17;14.20;;;;;;;0.05;81.10;103301.25;5031326;28;20306;-46
2022/03/22 06:00:05;;;;;;;17.05;13.95;;;;;;;0.15;81.07;103306.13;5030688;28;20267;-44
2022/03/22 06:02:30;;;;;;;17.10;13.88;;;;;;;0.23;81.26;103306.44;5030663;28;20543;-46
2022/03/22 06:04:56;;;;;;;18.02;14.40;;;;;;;0.30;80.39;103319.03;5044011;28;20237;-47
2022/03/22 06:07:22;;;;;;;18.65;14.07;;;;;;;0.30;80.74;103313.78;5051234;28;20575;-47
2022/03/22 06:09:47;;;;;;;18.80;14.93;;;;;;;0.35;80.68;103306.06;5051228;28;20242;-47
2022/03/22 06:12:16;;;;;;;17.05;14.40;;;;;;;0.44;80.72;103314.41;5050833;28;20654;-46
2022/03/22 06:14:41;;;;;;;17.77;14.23;;;;;;;0.44;80.50;103309.13;5051188;28;20256;-45
2022/03/22 06:17:07;;;;;;;23.73;16.20;;;;;;;0.50;80.26;103311.09;5051398;28;20184;-46
2022/03/22 06:19:32;;;;;;;18.77;15.23;;;;;;;0.58;80.60;103320.25;5051252;28;20659;-46
2022/03/22 06:21:58;;;;;;;23.42;15.35;;;;;;;0.71;80.43;103326.97;5051356;28;20183;-46
2022/03/22 06:24:23;;;;;;;21.98;14.80;;;;;;;0.92;80.29;103316.41;5050571;28;20240;-44
2022/03/22 06:26:49;;;;;;;17.40;14.68;;;;;;;1.07;79.86;103316.13;5050788;28;20179;-46
2022/03/22 06:29:14;;;;;;;18.65;15.32;;;;;;;1.10;79.04;103324.19;5051396;28;20539;-47
2022/03/22 06:31:39;;;;;;;18.80;14.05;;;;;;;1.28;78.88;103322.28;5050836;28;20523;-45
2022/03/22 06:34:05;;;;;;;20.88;14.93;;;;;;;1.41;78.61;103321.03;5050393;28;20199;-44
2022/03/22 06:36:30;;;;;;;16.95;14.25;;;;;;;1.55;78.33;103325.16;5050788;28;20262;-45
2022/03/22 06:38:56;;;;;;;23.70;14.90;;;;;;;1.68;77.34;103320.31;5050985;28;20214;-46
2022/03/22 06:41:21;;;;;;;17.23;14.00;;;;;;;1.79;77.30;103324.28;5050723;28;20179;-46
2022/03/22 06:43:46;;;;;;;17.27;14.55;;;;;;;1.76;76.82;103318.88;5050384;28;20184;-46
2022/03/22 06:46:12;;;;;;;18.80;14.93;;;;;;;1.79;76.29;103329.56;5051098;28;20171;-46
2022/03/22 06:48:37;;;;;;;18.88;14.73;;;;;;;1.80;77.10;103329.63;5051359;28;20171;-47
2022/03/22 06:51:03;;;;;;;20.08;14.35;;;;;;;2.06;76.54;103335.91;5051440;28;20195;-49
2022/03/22 06:53:28;;;;;;;19.05;15.00;;;;;;;2.18;76.17;103332.78;5050552;28;20206;-47
2022/03/22 06:55:53;;;;;;;19.58;14.80;;;;;;;2.29;76.45;103332.28;5050257;28;20575;-46
2022/03/22 06:58:22;;;;;;;18.83;14.05;;;;;;;2.33;75.71;103334.22;5051051;28;20345;-46
2022/03/22 07:00:52;;;;;;;17.33;13.93;;;;;;;2.52;75.60;103343.72;5049126;28;20179;-46
2022/03/22 07:03:17;;;;;;;16.77;13.15;;;;;;;2.67;75.10;103331.91;5049748;28;20163;-49
2022/03/22 07:05:46;;;;;;;19.25;15.20;;;;;;;2.78;74.78;103336.69;5030768;28;20192;-47
2022/03/22 07:08:13;;;;;;;17.00;14.38;;;;;;;2.87;74.34;103345.84;5030896;28;20246;-46
2022/03/22 07:10:38;;;;;;;16.48;13.93;;;;;;;2.89;74.04;103333.56;5029129;28;20180;-46
2022/03/22 07:13:08;;;;;;;20.52;14.05;;;;;;;3.11;73.79;103331.63;5028733;28;20242;-47
2022/03/22 07:15:38;;;;;;;18.77;14.73;;;;;;;3.21;73.26;103338.09;5029703;28;20553;-45
2022/03/22 07:18:05;;;;;;;17.42;13.95;;;;;;;3.50;72.90;103342.59;5029503;28;20639;-44
2022/03/22 07:20:31;;;;;;;16.85;14.25;;;;;;;3.70;72.55;103335.25;5030002;28;20176;-47
2022/03/22 07:22:57;;;;;;;17.20;13.45;;;;;;;3.90;71.75;103340.28;5029816;28;20168;-46
2022/03/22 07:25:22;;;;;;;17.25;13.50;;;;;;;4.05;68.91;103340.72;5030619;28;20615;-47
2022/03/22 07:27:49;;;;;;;16.73;12.95;;;;;;;4.32;65.71;103347.66;5030058;28;20179;-47
2022/03/22 07:30:15;;;;;;;17.33;12.68;;;;;;;4.51;63.32;103336.72;5029381;28;20673;-46
2022/03/22 07:32:42;;;;;;;15.32;11.55;;;;;;;4.70;61.17;103330.16;5029286;28;20203;-46
2022/03/22 07:35:10;;;;;;;18.30;12.05;;;;;;;4.93;59.46;103333.38;5029919;28;20661;-46
2022/03/22 07:37:36;;;;;;;14.63;11.70;;;;;;;5.11;57.71;103334.69;5030186;28;20179;-48
2022/03/22 07:40:08;;;;;;;19.58;12.32;;;;;;;5.35;57.11;103329.09;5030166;28;20230;-46
2022/03/22 07:42:34;;;;;;;13.57;11.30;;;;;;;5.63;57.39;103333.28;5029602;28;20195;-46
2022/03/22 07:45:03;;;;;;;12.68;11.15;;;;;;;5.77;55.10;103336.25;5029195;28;20282;-47
2022/03/22 07:47:29;;;;;;;23.10;12.10;;;;;;;5.83;54.02;103338.16;5029772;28;20538;-47
2022/03/22 07:55:24;;;;;;;14.63;11.02;;;;;;;6.17;52.09;103338.03;5030637;28;20265;-46
2022/03/22 07:57:49;;;;;;;14.82;11.25;;;;;;;6.29;51.57;103328.50;5029021;28;20179;-44
2022/03/22 08:00:17;;;;;;;13.13;11.35;;;;;;;6.35;50.90;103333.94;5031017;28;20184;-46
2022/03/22 08:02:56;;;;;;;14.95;11.75;;;;;;;6.36;50.66;103344.63;5030298;28;20647;-46
2022/03/22 08:05:23;;;;;;;14.05;11.35;;;;;;;6.49;49.93;103336.88;5048849;28;20665;-44
2022/03/22 08:07:49;;;;;;;14.20;11.23;;;;;;;6.66;49.82;103338.06;5053686;28;20281;-45
2022/03/22 08:10:15;;;;;;;14.38;11.35;;;;;;;6.84;49.67;103345.50;5053239;28;20174;-48
2022/03/22 08:12:41;;;;;;;16.55;11.40;;;;;;;6.99;49.08;103336.88;5054224;28;20226;-44
2022/03/22 08:15:08;;;;;;;15.65;10.80;;;;;;;7.20;49.63;103339.91;5052729;28;20245;-44
2022/03/22 08:17:36;;;;;;;18.45;11.60;;;;;;;7.23;48.05;103334.59;5053721;28;20178;-45
2022/03/22 08:20:03;;;;;;;15.75;11.27;;;;;;;7.29;48.04;103340.94;5052656;28;20171;-45
2022/03/22 08:22:29;;;;;;;14.98;11.10;;;;;;;7.69;48.80;103337.06;5053709;28;20182;-46
2022/03/22 08:24:54;;;;;;;15.32;11.95;;;;;;;7.58;47.86;103328.91;5052422;28;20547;-45
2022/03/22 08:27:20;;;;;;;16.67;12.02;;;;;;;7.57;48.49;103331.59;5052172;28;20242;-44
2022/03/22 08:29:45;;;;;;;13.48;11.80;;;;;;;7.55;49.18;103336.88;5053310;28;20171;-45
2022/03/22 08:32:10;;;;;;;18.77;12.30;;;;;;;7.55;48.61;103346.66;5053802;28;20561;-48
2022/03/22 08:34:36;;;;;;;14.15;11.90;;;;;;;7.63;48.67;103343.25;5053900;28;20729;-46
2022/03/22 08:37:03;;;;;;;15.18;12.63;;;;;;;7.72;48.09;103342.47;5053589;28;20336;-46
2022/03/22 08:39:28;;;;;;;16.02;11.77;;;;;;;7.78;48.32;103345.25;5052726;28;20176;-46
2022/03/22 08:41:54;;;;;;;13.25;11.88;;;;;;;8.18;47.73;103352.88;5052373;28;20159;-47
2022/03/22 08:44:20;;;;;;;14.80;12.20;;;;;;;8.28;47.59;103336.06;5053392;28;20436;-45
2022/03/22 08:46:46;;;;;;;15.05;12.48;;;;;;;8.51;47.74;103341.72;5053330;28;20167;-45
2022/03/22 08:49:12;;;;;;;14.80;11.77;;;;;;;8.81;47.21;103335.78;5051496;28;20213;-46
2022/03/22 08:51:37;;;;;;;14.85;12.93;;;;;;;9.12;46.29;103341.41;5051736;28;20496;-46
2022/03/22 08:54:05;;;;;;;15.10;12.07;;;;;;;9.32;45.31;103336.19;5052595;28;20282;-45
2022/03/22 08:56:30;;;;;;;16.15;12.55;;;;;;;9.40;45.18;103337.16;5052747;28;20176;-45
2022/03/22 08:58:55;;;;;;;14.25;12.60;;;;;;;9.73;45.38;103331.97;5052744;28;20187;-44
2022/03/22 09:01:25;;;;;;;15.32;12.27;;;;;;;10.11;44.11;103332.16;5051520;28;20583;-46
2022/03/22 09:06:07;;;;;;;15.30;12.82;;;;;;;10.27;44.63;103335.78;5048915;28;20274;-44
2022/03/22 09:06:37;;;;;;;16.10;12.77;;;;;;;10.59;44.71;103335.03;5032909;28;20216;-45
2022/03/22 09:09:04;;;;;;;16.95;13.68;;;;;;;10.77;45.70;103324.31;5032705;28;20168;-47
2022/03/22 09:11:30;;;;;;;14.07;12.70;;;;;;;10.76;45.58;103318.94;5033480;28;20608;-45
2022/03/22 09:13:55;;;;;;;17.20;12.77;;;;;;;10.65;46.12;103329.69;5032994;28;20211;-45
2022/03/22 09:16:21;;;;;;;16.05;12.57;;;;;;;10.53;44.20;103325.19;5033441;28;20198;-46
2022/03/22 09:18:48;;;;;;;16.27;13.00;;;;;;;10.71;45.94;103324.31;5033328;28;20728;-46
2022/03/22 09:21:16;;;;;;;15.50;13.00;;;;;;;10.64;45.56;103331.44;5033241;28;20179;-45
2022/03/22 09:23:42;;;;;;;14.88;12.95;;;;;;;10.71;44.69;103324.31;5032595;28;20191;-45
2022/03/22 09:26:07;;;;;;;20.48;13.73;;;;;;;10.20;47.87;103329.53;5033172;28;20266;-44
2022/03/22 09:28:33;;;;;;;16.25;14.55;;;;;;;10.02;50.97;103324.09;5033138;28;20608;-44
2022/03/22 09:30:58;;;;;;;18.25;15.02;;;;;;;10.12;50.25;103320.53;5032911;28;20188;-46
2022/03/22 09:33:23;;;;;;;19.00;12.80;;;;;;;10.34;46.69;103312.63;5032317;28;20200;-46
2022/03/22 09:35:49;;;;;;;15.50;13.20;;;;;;;10.52;46.53;103318.03;5032798;28;20168;-45
2022/03/22 09:38:15;;;;;;;16.77;13.05;;;;;;;10.26;46.12;103315.25;5032238;28;20665;-44
2022/03/22 09:40:40;;;;;;;16.63;13.70;;;;;;;10.33;47.89;103306.38;5032880;28;20563;-45
2022/03/22 09:43:08;;;;;;;16.48;14.73;;;;;;;10.29;47.92;103305.47;5030857;28;20168;-45
2022/03/22 09:45:35;;;;;;;19.42;14.20;;;;;;;10.28;46.56;103316.16;5032020;28;20677;-43
2022/03/22 09:48:01;;;;;;;21.30;13.27;;;;;;;10.21;45.55;103315.25;5032524;28;20669;-45
2022/03/22 09:53:15;;;;;;;16.52;13.13;;;;;;;10.48;45.87;103310.88;5051025;28;20187;-44
2022/03/22 09:55:41;;;;;;;15.32;13.13;;;;;;;11.04;45.75;103304.69;5051752;28;20304;-46
2022/03/22 09:58:07;;;;;;;18.75;13.93;;;;;;;11.04;45.95;103309.13;5052243;28;20675;-45
2022/03/22 10:00:33;;;;;;;14.98;13.38;;;;;;;11.03;46.73;103304.66;5052060;28;20586;-45
2022/03/22 10:02:59;;;;;;;17.60;14.13;;;;;;;11.09;46.19;103300.19;5049847;28;20177;-45
2022/03/22 10:05:29;;;;;;;17.48;14.20;;;;;;;11.13;43.89;103307.34;5046382;28;20222;-46
2022/03/22 10:08:05;;;;;;;15.35;13.70;;;;;;;10.65;44.21;103305.56;5050955;28;20170;-45
2022/03/22 10:10:31;;;;;;;16.13;14.43;;;;;;;10.68;43.83;103297.50;5052407;28;20642;-46
2022/03/22 10:12:59;;;;;;;16.00;14.25;;;;;;;10.88;45.32;103294.81;5051696;28;20226;-46
2022/03/22 10:15:34;;;;;;;19.00;14.23;;;;;;;10.69;43.62;103302.88;5050255;28;20203;-46
2022/03/22 10:18:06;;;;;;;18.88;14.00;;;;;;;10.78;43.99;103298.38;5051892;28;20538;-45
2022/03/22 10:20:35;;;;;;;16.85;13.95;;;;;;;10.92;43.79;103294.81;5051602;28;20590;-44
2022/03/22 10:23:02;;;;;;;15.98;14.27;;;;;;;10.94;44.34;103292.16;5051745;28;20187;-47
2022/03/22 10:25:32;;;;;;;16.27;13.95;;;;;;;11.11;44.19;103281.41;5050643;28;20191;-45
2022/03/22 10:28:01;;;;;;;16.70;14.38;;;;;;;11.59;42.89;103282.22;5051252;28;20160;-46
2022/03/22 10:30:27;;;;;;;16.85;14.50;;;;;;;11.26;44.46;103284.06;5051695;28;20171;-47
2022/03/22 10:32:53;;;;;;;15.85;13.70;;;;;;;11.02;45.88;103282.31;5051516;28;20188;-46
2022/03/22 10:35:24;;;;;;;21.83;14.15;;;;;;;10.91;47.62;103274.28;5052254;28;20200;-47
2022/03/22 10:37:53;;;;;;;17.50;14.60;;;;;;;10.68;47.25;103284.09;5051657;28;20168;-49
2022/03/22 10:40:28;;;;;;;22.83;14.35;;;;;;;11.12;48.22;103281.38;5050800;28;20172;-46
2022/03/22 10:42:57;;;;;;;16.38;14.48;;;;;;;11.62;49.51;103276.81;5051523;28;20167;-45
2022/03/22 10:45:23;;;;;;;17.10;15.32;;;;;;;11.68;48.36;103276.81;5051730;28;20194;-45
2022/03/22 10:47:48;;;;;;;19.20;15.32;;;;;;;11.54;49.24;103282.22;5051604;28;20278;-45
2022/03/22 10:50:14;;;;;;;16.60;14.75;;;;;;;11.85;50.22;103276.75;5050209;28;20244;-49
2022/03/22 10:52:51;;;;;;;23.15;15.75;;;;;;;12.26;50.43;103280.13;5051054;28;20191;-45
2022/03/22 10:55:19;;;;;;;18.50;15.10;;;;;;;12.09;48.53;103281.13;5049880;28;20293;-47
2022/03/22 10:57:50;;;;;;;19.25;15.95;;;;;;;12.36;47.97;103280.06;5051012;28;20602;-46
2022/03/22 11:00:17;;;;;;;18.40;15.77;;;;;;;12.50;47.59;103269.22;5051118;28;20473;-47
2022/03/22 11:02:45;;;;;;;17.30;15.50;;;;;;;12.55;48.44;103271.88;5050869;28;20167;-47
2022/03/22 11:05:11;;;;;;;17.83;15.93;;;;;;;12.40;49.61;103269.28;5035903;28;20714;-47
2022/03/22 11:07:39;;;;;;;19.60;14.93;;;;;;;12.27;51.63;103268.50;5031008;28;20266;-49
2022/03/22 11:10:05;;;;;;;18.20;15.73;;;;;;;12.07;51.81;103279.34;5030920;28;20184;-47
2022/03/22 11:12:33;;;;;;;18.60;16.30;;;;;;;12.15;51.77;103264.06;5030552;28;20249;-48
2022/03/22 11:15:00;;;;;;;18.10;15.32;;;;;;;12.14;50.96;103275.75;5031133;28;20195;-47
2022/03/22 11:17:28;;;;;;;18.25;15.45;;;;;;;11.62;51.59;103267.88;5029559;28;20180;-47
2022/03/22 11:19:59;;;;;;;17.45;15.32;;;;;;;11.81;52.89;103266.91;5029770;28;20176;-46
2022/03/22 11:22:25;;;;;;;17.58;15.35;;;;;;;11.77;52.03;103267.81;5030592;28;20631;-45
2022/03/22 11:24:50;;;;;;;18.38;14.75;;;;;;;12.24;50.47;103263.13;5030726;28;20275;-44
2022/03/22 11:27:16;;;;;;;17.48;15.10;;;;;;;12.21;49.90;103264.03;5030628;28;20542;-45
2022/03/22 11:29:42;;;;;;;16.55;14.85;;;;;;;12.05;51.31;103265.03;5030938;28;20172;-44
2022/03/22 11:34:54;;;;;;;15.65;14.00;;;;;;;12.33;49.78;103263.06;5030329;28;20192;-48
2022/03/22 11:37:32;;;;;;;19.63;15.73;;;;;;;12.22;51.86;103256.88;5030946;28;20647;-46
2022/03/22 11:42:56;;;;;;;16.52;14.57;;;;;;;12.11;52.44;103265.00;5030500;28;20157;-47
2022/03/22 11:45:22;;;;;;;16.67;14.95;;;;;;;11.86;53.21;103259.72;5030498;28;20207;-45
2022/03/22 11:47:49;;;;;;;19.20;15.48;;;;;;;11.58;53.04;103260.72;5030407;28;20178;-46
2022/03/22 11:50:18;;;;;;;17.98;14.82;;;;;;;11.67;53.04;103260.69;5030588;28;20168;-45